Aeroporto :







RITROVATECI SU...

 
LOGIN :

Iscrizione | Disclaimer

   EN    FR    IT 

 









Sommario :    VFR   VFR Marginale   IFR   IFR Intensivo   IFR Molto Intensivo
Visibilità : 
Base nubi : 
>= 8 km
>= 3000ft
5 / 8 km
1000 / 3000 ft
1500m / 5 km
500 / 1000 ft
800 / 1500m
200 / 500 ft
< 800m
< 200 ft
Simboli :   Temporali  Nebbia  Neve Forte  Precipitazioni Forti  Vento > 20 kt






- Altitudine del aeroporto : 232 ft
- Codice IATA : YQM


CYQM - Greater Moncton International

ULTIMO METAR :
  • 270000Z 22014KT 15SM SCT140 BKN250 22/15 A3010 RMK AC3CI3 SLP196 DENSITY ALT 900FT

METARs OBSOLETI :
  • 262300Z 21014KT 15SM FEW050 SCT160 BKN260 23/15 A3010 RMK SC1AC2CS3 SLP195 DENSITY ALT 1100FT
  • 262200Z 21017G24KT 15SM FEW045 SCT160 BKN260 24/15 A3009 RMK SC1AC2CS4 SLP192 DENSITY ALT 1200FT

TAF TAF CYQM
Valido dal 27 a 00 ore il 28 a 00 ore UTC


262338Z 2700/2724 21012KT P6SM FEW050 BKN260
FM270200 23008KT P6SM BKN060
FM271200 25006KT P6SM SCT020 BKN060
FM271500 25010KT P6SM BKN040
BECMG 2719/2721 05008KT
FM272200 05005KT P6SM FEW040 RMK NXT FCST BY 270600Z
FIR CZQM / America del Nord



MetMap, La meteo Aeronautica in un colpo d'occhio ! - Copyright ORBIFLY Dicembre 2007 - Disclaimer

ORBIFLY MET'MAP TEAM :

Programmazione e sviluppo : Alexandra Zaïnal
Concezione : Baudouin d'Aumeries
Aiuto per la programmazione : Marc-Olivier Méhu
Supporto tecnico e logistico : Manuel Goepfert
Aiuto per la traduzione : Arnaldo La Scala

Contatto : metmap@orbifly.com




FONTI E CREDITI :

   NOAA